Michel Dsr — FLTE — position and weather

sailwx.info

Track history (hours):
 
Tides and Currents Weather Stations Pressure Air Temp Water Temp Dewpoint Dewpoint Depression Visibility Wind Speed Wind Dir Waves Ship Positions

Michel Dsr

Last reported at 2014-Dec-22 14:33 UTC. Time now 2014-Dec-22 14:57 UTC.
Position N 46°07' W 001°17'.

Length 80 m; draft 6 m.

Type: Dredging. MMSI: 228344700.

Date/timePositionNaut miles runAvg speedWind from/ knotsBaromVisibWave heightAir tempDewpointWater temp
2014-Dec-22 14:33N 46°07' W 001°17'4 4.0
2014-Dec-22 13:33N 46°09' W 001°13'0 0.0
2014-Dec-22 12:33N 46°09' W 001°13'0 0.2
2014-Dec-22 11:33N 46°09' W 001°14'4 3.0
2014-Dec-22 10:07N 46°05' W 001°16'0 0.1
2014-Dec-22 09:33N 46°05' W 001°16'0 0.0
2014-Dec-22 08:33N 46°05' W 001°16'2 1.9
2014-Dec-22 07:33N 46°06' W 001°18'9 9.0
2014-Dec-22 06:33N 46°05' W 001°31'2 1.8
2014-Dec-22 05:33N 46°05' W 001°34'0 0.1
2014-Dec-22 04:33N 46°05' W 001°34'3 3.2
2014-Dec-22 03:32N 46°08' W 001°36'1111.7
2014-Dec-22 02:33N 46°16' W 001°47'1211.8
2014-Dec-22 01:33N 46°26' W 001°57'1211.7
2014-Dec-22 00:33N 46°36' W 002°06'1211.4
2014-Dec-21 23:33N 46°45' W 002°16'1311.4
2014-Dec-21 22:22N 46°55' W 002°29'1311.1
2014-Dec-21 21:13N 47°05' W 002°42'811.2
2014-Dec-21 20:31N 47°10' W 002°50'1311.6
2014-Dec-21 19:22N 47°20' W 003°03'911.0
2014-Dec-21 18:32N 47°28' W 003°11'1111.5
2014-Dec-21 17:33N 47°37' W 003°19'7 7.5
2014-Dec-21 16:33N 47°45' W 003°19'0 0.0
2014-Dec-21 15:33N 47°45' W 003°19'0 0.0
2014-Dec-21 14:33N 47°45' W 003°19'2 2.4
2014-Dec-21 13:33N 47°43' W 003°22'7 7.0
2014-Dec-21 12:33N 47°36' W 003°20'9 9.3
2014-Dec-21 11:33N 47°29' W 003°12'8 8.4
2014-Dec-21 10:33N 47°22' W 003°04'9 8.8
2014-Dec-21 09:33N 47°15' W 002°56'9 8.5
2014-Dec-21 08:32N 47°09' W 002°48'41 9.4
2014-Dec-21 04:13N 46°38' W 002°08'710.4
2014-Dec-21 03:33N 46°33' W 002°02'1010.3
2014-Dec-21 02:33N 46°26' W 001°51'6 5.9
2014-Dec-21 01:34N 46°22' W 001°44'0 0.3
2014-Dec-21 00:33N 46°22' W 001°45'10 9.8
2014-Dec-20 23:33N 46°29' W 001°56'1212.1
2014-Dec-20 22:33N 46°38' W 002°07'1212.0
2014-Dec-20 21:33N 46°47' W 002°18'1211.1
2014-Dec-20 20:30N 46°57' W 002°28'1212.0
2014-Dec-20 19:28N 47°08' W 002°20'33 4.0
2014-Dec-20 11:11N 46°36' W 002°06'711.2
2014-Dec-20 10:33N 46°30' W 001°60'1111.1
2014-Dec-20 09:34N 46°21' W 001°51'1111.2
2014-Dec-20 08:34N 46°12' W 001°41'8 8.5
2014-Dec-20 07:34N 46°05' W 001°34'0 0.1
2014-Dec-20 06:34N 46°05' W 001°34'0 0.1
2014-Dec-20 05:34N 46°05' W 001°34'4 4.1
2014-Dec-20 04:31N 46°05' W 001°28'1212.4
2014-Dec-20 03:33N 46°01' W 001°12'9 9.1
2014-Dec-20 02:34N 45°58' W 000°60'3 2.9
2014-Dec-20 01:33N 45°56' W 000°56'1 0.1
2014-Dec-19 14:21N 45°57' W 000°57'3 2.9
2014-Dec-19 13:24N 45°58' W 001°00'7 8.2
2014-Dec-19 12:33N 45°60' W 001°10'1 1.0
2014-Dec-19 11:33N 45°60' W 001°11'0 0.0
2014-Dec-19 10:33N 45°60' W 001°11'0 0.0
2014-Dec-19 09:33N 45°60' W 001°11'1 0.9
2014-Dec-19 08:33N 46°01' W 001°12'1111.1
2014-Dec-19 07:33N 46°05' W 001°27'5 5.3
2014-Dec-19 06:32N 46°05' W 001°35'0 0.1
2014-Dec-19 05:34N 46°05' W 001°35'1 0.5
2014-Dec-19 04:30N 46°05' W 001°34'0 0.1
2014-Dec-19 03:33N 46°05' W 001°34'7 6.7
2014-Dec-19 02:33N 46°10' W 001°40'1111.6
2014-Dec-19 01:33N 46°20' W 001°48'1211.7
2014-Dec-19 00:33N 46°30' W 001°57'1212.0
2014-Dec-18 23:33N 46°39' W 002°08'1212.2
2014-Dec-18 22:33N 46°48' W 002°20'23 9.5
2014-Dec-18 20:07N 47°11' W 002°18'10 2.2
2014-Dec-18 15:30N 47°18' W 002°07'0 0.0
2014-Dec-18 13:14N 47°18' W 002°07'0 0.0
2014-Dec-18 12:14N 47°18' W 002°07'0 0.0
2014-Dec-18 11:24N 47°18' W 002°07'0 0.1
2014-Dec-18 09:28N 47°18' W 002°07'0 0.0
2014-Dec-18 05:28N 47°18' W 002°07'0 0.0
2014-Dec-18 04:30N 47°18' W 002°07'0 0.0
2014-Dec-18 02:27N 47°18' W 002°07'  
2014-Dec-14 10:09N 47°18' W 002°07'0 0.0
2014-Dec-14 09:14N 47°18' W 002°07'38 2.4
2014-Dec-13 17:24N 46°40' W 002°10'1012.3
2014-Dec-13 16:33N 46°31' W 002°01'1211.7
2014-Dec-13 15:33N 46°22' W 001°51'1111.3
2014-Dec-13 14:33N 46°13' W 001°41'10 4.7
2014-Dec-13 12:29N 46°05' W 001°34'0 0.3
2014-Dec-13 11:31N 46°05' W 001°34'0 0.1
2014-Dec-13 10:33N 46°05' W 001°34'10 8.4
2014-Dec-13 09:25N 46°06' W 001°21'4 0.9
2014-Dec-13 05:14N 46°06' W 001°16'19 1.9
2014-Dec-12 19:16N 46°13' W 001°41'710.4
2014-Dec-12 18:33N 46°19' W 001°48'1010.4
2014-Dec-12 17:33N 46°27' W 001°56'1010.1
2014-Dec-12 16:34N 46°36' W 002°05'10 9.7
2014-Dec-12 15:34N 46°43' W 002°13'  
Track history (hours):
 
Tides and Currents Weather Stations Pressure Air Temp Water Temp Dewpoint Dewpoint Depression Visibility Wind Speed Wind Dir Waves Ship Positions

Michel Dsr

Last reported at 2014-Dec-22 14:33 UTC. Time now 2014-Dec-22 14:57 UTC.
Position N 46°07' W 001°17'.

Length 80 m; draft 6 m.

Type: Dredging. MMSI: 228344700.

Date/timePositionNaut miles runAvg speedWind from/ knotsBaromVisibWave heightAir tempDewpointWater temp
2014-Dec-22 14:33N 46°07' W 001°17'4 4.0
2014-Dec-22 13:33N 46°09' W 001°13'0 0.0
2014-Dec-22 12:33N 46°09' W 001°13'0 0.2
2014-Dec-22 11:33N 46°09' W 001°14'4 3.0
2014-Dec-22 10:07N 46°05' W 001°16'0 0.1
2014-Dec-22 09:33N 46°05' W 001°16'0 0.0
2014-Dec-22 08:33N 46°05' W 001°16'2 1.9
2014-Dec-22 07:33N 46°06' W 001°18'9 9.0
2014-Dec-22 06:33N 46°05' W 001°31'2 1.8
2014-Dec-22 05:33N 46°05' W 001°34'0 0.1
2014-Dec-22 04:33N 46°05' W 001°34'3 3.2
2014-Dec-22 03:32N 46°08' W 001°36'1111.7
2014-Dec-22 02:33N 46°16' W 001°47'1211.8
2014-Dec-22 01:33N 46°26' W 001°57'1211.7
2014-Dec-22 00:33N 46°36' W 002°06'1211.4
2014-Dec-21 23:33N 46°45' W 002°16'1311.4
2014-Dec-21 22:22N 46°55' W 002°29'1311.1
2014-Dec-21 21:13N 47°05' W 002°42'811.2
2014-Dec-21 20:31N 47°10' W 002°50'1311.6
2014-Dec-21 19:22N 47°20' W 003°03'911.0
2014-Dec-21 18:32N 47°28' W 003°11'1111.5
2014-Dec-21 17:33N 47°37' W 003°19'7 7.5
2014-Dec-21 16:33N 47°45' W 003°19'0 0.0
2014-Dec-21 15:33N 47°45' W 003°19'0 0.0
2014-Dec-21 14:33N 47°45' W 003°19'2 2.4
2014-Dec-21 13:33N 47°43' W 003°22'7 7.0
2014-Dec-21 12:33N 47°36' W 003°20'9 9.3
2014-Dec-21 11:33N 47°29' W 003°12'8 8.4
2014-Dec-21 10:33N 47°22' W 003°04'9 8.8
2014-Dec-21 09:33N 47°15' W 002°56'9 8.5
2014-Dec-21 08:32N 47°09' W 002°48'41 9.4
2014-Dec-21 04:13N 46°38' W 002°08'710.4
2014-Dec-21 03:33N 46°33' W 002°02'1010.3
2014-Dec-21 02:33N 46°26' W 001°51'6 5.9
2014-Dec-21 01:34N 46°22' W 001°44'0 0.3
2014-Dec-21 00:33N 46°22' W 001°45'10 9.8
2014-Dec-20 23:33N 46°29' W 001°56'1212.1
2014-Dec-20 22:33N 46°38' W 002°07'1212.0
2014-Dec-20 21:33N 46°47' W 002°18'1211.1
2014-Dec-20 20:30N 46°57' W 002°28'1212.0
2014-Dec-20 19:28N 47°08' W 002°20'33 4.0
2014-Dec-20 11:11N 46°36' W 002°06'711.2
2014-Dec-20 10:33N 46°30' W 001°60'1111.1
2014-Dec-20 09:34N 46°21' W 001°51'1111.2
2014-Dec-20 08:34N 46°12' W 001°41'8 8.5
2014-Dec-20 07:34N 46°05' W 001°34'0 0.1
2014-Dec-20 06:34N 46°05' W 001°34'0 0.1
2014-Dec-20 05:34N 46°05' W 001°34'4 4.1
2014-Dec-20 04:31N 46°05' W 001°28'1212.4
2014-Dec-20 03:33N 46°01' W 001°12'9 9.1
2014-Dec-20 02:34N 45°58' W 000°60'3 2.9
2014-Dec-20 01:33N 45°56' W 000°56'1 0.1
2014-Dec-19 14:21N 45°57' W 000°57'3 2.9
2014-Dec-19 13:24N 45°58' W 001°00'7 8.2
2014-Dec-19 12:33N 45°60' W 001°10'1 1.0
2014-Dec-19 11:33N 45°60' W 001°11'0 0.0
2014-Dec-19 10:33N 45°60' W 001°11'0 0.0
2014-Dec-19 09:33N 45°60' W 001°11'1 0.9
2014-Dec-19 08:33N 46°01' W 001°12'1111.1
2014-Dec-19 07:33N 46°05' W 001°27'5 5.3
2014-Dec-19 06:32N 46°05' W 001°35'0 0.1
2014-Dec-19 05:34N 46°05' W 001°35'1 0.5
2014-Dec-19 04:30N 46°05' W 001°34'0 0.1
2014-Dec-19 03:33N 46°05' W 001°34'7 6.7
2014-Dec-19 02:33N 46°10' W 001°40'1111.6
2014-Dec-19 01:33N 46°20' W 001°48'1211.7
2014-Dec-19 00:33N 46°30' W 001°57'1212.0
2014-Dec-18 23:33N 46°39' W 002°08'1212.2
2014-Dec-18 22:33N 46°48' W 002°20'23 9.5
2014-Dec-18 20:07N 47°11' W 002°18'10 2.2
2014-Dec-18 15:30N 47°18' W 002°07'0 0.0
2014-Dec-18 13:14N 47°18' W 002°07'0 0.0
2014-Dec-18 12:14N 47°18' W 002°07'0 0.0
2014-Dec-18 11:24N 47°18' W 002°07'0 0.1
2014-Dec-18 09:28N 47°18' W 002°07'0 0.0
2014-Dec-18 05:28N 47°18' W 002°07'0 0.0
2014-Dec-18 04:30N 47°18' W 002°07'0 0.0
2014-Dec-18 02:27N 47°18' W 002°07'  
2014-Dec-14 10:09N 47°18' W 002°07'0 0.0
2014-Dec-14 09:14N 47°18' W 002°07'38 2.4
2014-Dec-13 17:24N 46°40' W 002°10'1012.3
2014-Dec-13 16:33N 46°31' W 002°01'1211.7
2014-Dec-13 15:33N 46°22' W 001°51'1111.3
2014-Dec-13 14:33N 46°13' W 001°41'10 4.7
2014-Dec-13 12:29N 46°05' W 001°34'0 0.3
2014-Dec-13 11:31N 46°05' W 001°34'0 0.1
2014-Dec-13 10:33N 46°05' W 001°34'10 8.4
2014-Dec-13 09:25N 46°06' W 001°21'4 0.9
2014-Dec-13 05:14N 46°06' W 001°16'19 1.9
2014-Dec-12 19:16N 46°13' W 001°41'710.4
2014-Dec-12 18:33N 46°19' W 001°48'1010.4
2014-Dec-12 17:33N 46°27' W 001°56'1010.1
2014-Dec-12 16:34N 46°36' W 002°05'10 9.7
2014-Dec-12 15:34N 46°43' W 002°13'  

Dump ship's entire track history